Time;durP1;ratioP1;P1;durP2;ratioP2;P2;SDS_P1;SDS_P2;PMS_P1;PMS_P2;Temp;Humidity;BMP_temperature;BMP_pressure;BME280_temperature;BME280_humidity;BME280_pressure;Samples;Min_cycle;Max_cycle;Signal;HPM_P1;HPM_P2
2023/03/31 00:00:51;;;;;;;7.78;5.25;;;;;;;10.01;100.00;98341.13;4484888;31;20123;-66
2023/03/31 00:03:22;;;;;;;8.20;5.20;;;;;;;10.01;100.00;98351.59;4485008;31;20450;-66
2023/03/31 00:05:57;;;;;;;9.63;5.10;;;;;;;10.03;100.00;98342.62;4485045;31;20088;-66
2023/03/31 00:08:28;;;;;;;9.52;4.62;;;;;;;9.95;100.00;98342.53;4484993;32;20450;-66
2023/03/31 00:10:59;;;;;;;9.98;5.20;;;;;;;10.04;100.00;98346.91;4485010;31;20150;-66
2023/03/31 00:13:28;;;;;;;7.25;4.70;;;;;;;10.02;100.00;98338.38;4485023;31;20131;-66
2023/03/31 00:16:00;;;;;;;8.98;4.90;;;;;;;10.01;100.00;98346.34;4485167;31;20110;-66
2023/03/31 00:18:28;;;;;;;10.40;4.72;;;;;;;10.07;100.00;98348.41;4484893;31;20179;-66
2023/03/31 00:21:23;;;;;;;8.00;4.95;;;;;;;10.04;100.00;98346.09;4483854;31;20153;-66
2023/03/31 00:23:53;;;;;;;8.73;4.90;;;;;;;9.98;100.00;98347.47;4484852;31;20091;-66
2023/03/31 00:26:21;;;;;;;10.27;5.87;;;;;;;9.97;100.00;98345.81;4484852;31;20084;-66
2023/03/31 00:28:49;;;;;;;8.57;4.47;;;;;;;9.92;100.00;98338.41;4485119;31;20119;-66
2023/03/31 00:31:17;;;;;;;8.55;4.18;;;;;;;9.93;100.00;98337.44;4483464;32;20120;-66
2023/03/31 00:33:46;;;;;;;7.72;4.72;;;;;;;9.88;100.00;98331.81;4484697;31;20508;-66
2023/03/31 00:36:16;;;;;;;9.68;4.82;;;;;;;9.88;100.00;98331.81;4484810;31;20522;-66
2023/03/31 00:38:44;;;;;;;8.40;4.40;;;;;;;9.85;100.00;98334.72;4484901;32;20092;-66
2023/03/31 00:41:12;;;;;;;10.88;4.55;;;;;;;9.79;100.00;98332.66;4484743;31;20099;-66
2023/03/31 00:43:40;;;;;;;10.68;4.18;;;;;;;9.69;100.00;98326.63;4484699;31;20588;-66
2023/03/31 00:46:14;;;;;;;11.70;3.83;;;;;;;9.61;100.00;98324.72;4484533;31;20135;-66
2023/03/31 00:48:46;;;;;;;5.43;3.43;;;;;;;9.53;100.00;98328.06;4484685;31;20466;-66
2023/03/31 00:51:13;;;;;;;8.43;4.47;;;;;;;9.47;100.00;98322.59;4484767;31;20401;-66
2023/03/31 00:53:41;;;;;;;6.87;4.22;;;;;;;9.42;100.00;98323.00;4484347;31;20468;-66
2023/03/31 00:56:12;;;;;;;10.43;3.95;;;;;;;9.38;100.00;98322.44;4484475;32;20516;-66
2023/03/31 00:58:42;;;;;;;6.32;4.15;;;;;;;9.32;100.00;98322.19;4483290;32;20088;-66
2023/03/31 01:01:13;;;;;;;7.35;4.07;;;;;;;9.27;100.00;98325.22;4484353;31;20096;-66
2023/03/31 01:03:45;;;;;;;8.27;3.80;;;;;;;9.14;100.00;98329.91;4483368;32;20104;-66
2023/03/31 01:06:18;;;;;;;6.93;3.72;;;;;;;9.13;100.00;98325.63;4484249;31;20149;-66
2023/03/31 01:08:47;;;;;;;11.82;3.75;;;;;;;9.10;100.00;98320.69;4483286;32;20194;-66
2023/03/31 01:11:17;;;;;;;7.82;3.95;;;;;;;8.98;100.00;98325.25;4484302;31;20096;-65
2023/03/31 01:13:47;;;;;;;6.60;4.00;;;;;;;8.89;100.00;98316.44;4484333;31;20104;-66
2023/03/31 01:16:16;;;;;;;6.70;4.37;;;;;;;8.94;100.00;98311.63;4483062;32;20151;-65
2023/03/31 01:18:48;;;;;;;10.25;4.05;;;;;;;8.84;100.00;98313.41;4484414;31;20119;-66
2023/03/31 01:22:05;;;;;;;9.57;3.65;;;;;;;8.86;100.00;98311.50;4482936;32;20513;-66
2023/03/31 01:25:00;;;;;;;9.20;4.55;;;;;;;8.84;100.00;98310.78;4484365;31;20436;-66
2023/03/31 01:27:52;;;;;;;8.70;4.20;;;;;;;8.85;100.00;98317.69;4484401;31;20084;-66
2023/03/31 01:30:39;;;;;;;6.05;3.45;;;;;;;8.92;100.00;98317.94;4484088;32;20084;-66
2023/03/31 01:33:41;;;;;;;5.47;3.50;;;;;;;8.89;100.00;98316.44;4485560;31;20139;-66
2023/03/31 01:36:39;;;;;;;7.40;3.70;;;;;;;8.92;100.00;98317.94;4486276;32;20110;-65
2023/03/31 01:39:44;;;;;;;7.35;4.25;;;;;;;8.94;100.00;98313.44;4485986;31;20148;-66
2023/03/31 01:42:20;;;;;;;;;;;;;;;9.01;100.00;98306.69;4486359;31;20096;-66
2023/03/31 01:45:06;;;;;;;7.72;3.72;;;;;;;9.00;100.00;98316.31;4485977;31;20011;-66
2023/03/31 01:47:39;;;;;;;8.00;3.45;;;;;;;8.99;100.00;98319.91;4485875;32;20179;-66
2023/03/31 01:50:39;;;;;;;6.90;3.37;;;;;;;8.95;100.00;98318.50;4484645;32;20159;-66
2023/03/31 01:53:20;;;;;;;6.35;3.22;;;;;;;8.96;100.00;98314.94;4479744;31;20451;-66
2023/03/31 01:56:09;;;;;;;4.95;3.10;;;;;;;8.97;100.00;98318.38;4484589;32;20138;-66
2023/03/31 01:58:57;;;;;;;5.70;3.30;;;;;;;8.96;100.00;98314.94;4471849;32;20465;-66
2023/03/31 02:01:39;;;;;;;4.47;2.95;;;;;;;8.93;100.00;98315.19;4485887;31;20084;-66
2023/03/31 02:04:16;;;;;;;5.15;2.60;;;;;;;8.91;100.00;98311.91;4484651;32;20495;-66
2023/03/31 02:06:48;;;;;;;3.50;2.50;;;;;;;8.83;100.00;98309.97;4484645;32;20100;-66
2023/03/31 02:09:19;;;;;;;10.07;3.20;;;;;;;8.78;100.00;98312.19;4484692;32;20113;-66
2023/03/31 02:11:48;;;;;;;3.90;2.72;;;;;;;8.74;100.00;98316.03;4484497;32;20527;-66
2023/03/31 02:14:20;;;;;;;7.15;3.00;;;;;;;8.75;100.00;98309.00;4484445;32;20161;-66
2023/03/31 02:16:51;;;;;;;7.60;3.40;;;;;;;8.71;100.00;98316.31;4484609;32;20440;-66
2023/03/31 02:19:19;;;;;;;5.93;2.80;;;;;;;8.68;100.00;98301.72;4484514;32;20157;-66
2023/03/31 02:21:48;;;;;;;9.95;3.65;;;;;;;8.61;100.00;98299.78;4484267;32;20561;-66
2023/03/31 02:24:18;;;;;;;6.10;2.70;;;;;;;8.57;100.00;98301.87;4484415;32;20193;-66
2023/03/31 02:26:55;;;;;;;5.65;2.67;;;;;;;8.49;100.00;98299.09;4484670;32;20100;-66
2023/03/31 02:29:22;;;;;;;7.28;2.95;;;;;;;8.46;100.00;98295.00;4484491;32;20100;-66
2023/03/31 02:32:02;;;;;;;4.12;2.65;;;;;;;8.38;100.00;98301.81;4485899;31;20091;-66
2023/03/31 02:34:30;;;;;;;3.97;2.53;;;;;;;8.37;100.00;98290.53;4485975;31;20080;-66
2023/03/31 02:36:57;;;;;;;6.95;2.80;;;;;;;8.34;100.00;98281.19;4485562;31;20161;-66
2023/03/31 02:39:28;;;;;;;4.75;2.97;;;;;;;8.43;100.00;98281.34;4484368;32;20164;-66
2023/03/31 02:41:56;;;;;;;4.25;2.55;;;;;;;8.48;100.00;98284.41;4484520;32;20193;-66
2023/03/31 02:44:24;;;;;;;4.28;2.53;;;;;;;8.48;100.00;98277.41;4485350;31;20151;-66
2023/03/31 02:46:52;;;;;;;4.57;2.70;;;;;;;8.45;100.00;98287.28;4485641;32;20164;-66
2023/03/31 02:49:20;;;;;;;7.70;2.33;;;;;;;8.44;100.00;98283.03;4485584;31;20116;-66
2023/03/31 02:52:04;;;;;;;7.68;2.87;;;;;;;8.39;100.00;98277.34;4485430;31;20596;-66
2023/03/31 02:54:49;;;;;;;5.68;2.95;;;;;;;8.34;100.00;98278.59;4485541;31;20091;-66
2023/03/31 02:57:32;;;;;;;8.07;2.92;;;;;;;8.31;100.00;98284.06;4485514;31;20164;-66
2023/03/31 03:00:12;;;;;;;6.87;2.58;;;;;;;8.27;100.00;98277.47;4485803;31;20374;-66
2023/03/31 03:03:03;;;;;;;3.35;2.33;;;;;;;8.25;100.00;98289.00;4484134;32;20108;-66
2023/03/31 03:05:57;;;;;;;3.03;2.58;;;;;;;8.23;100.00;98281.28;4436166;32;20123;-66
2023/03/31 03:08:58;;;;;;;7.10;3.47;;;;;;;8.32;100.00;98284.91;4436569;32;20441;-66
2023/03/31 03:12:07;;;;;;;5.97;2.87;;;;;;;8.30;100.00;98282.41;4414979;32;20106;-66
2023/03/31 03:14:38;;;;;;;6.47;2.50;;;;;;;8.28;100.00;98276.53;4375369;32;20544;-66
2023/03/31 03:17:24;;;;;;;6.45;3.05;;;;;;;8.32;100.00;98283.09;4375447;32;20711;-66
2023/03/31 03:19:53;;;;;;;4.93;2.40;;;;;;;8.25;100.00;98284.63;4375300;32;20129;-66
2023/03/31 03:22:21;;;;;;;9.25;2.67;;;;;;;8.21;100.00;98283.22;4375237;32;20123;-66
2023/03/31 03:24:51;;;;;;;9.82;2.95;;;;;;;8.18;100.00;98280.88;4375212;32;20142;-66
2023/03/31 03:27:21;;;;;;;11.05;3.95;;;;;;;8.16;100.00;98278.41;4375164;32;20117;-66
2023/03/31 03:29:49;;;;;;;3.53;2.28;;;;;;;8.13;100.00;98270.84;4375147;32;20111;-66
2023/03/31 03:32:16;;;;;;;3.95;2.72;;;;;;;8.00;100.00;98280.69;4375021;32;20114;-66
2023/03/31 03:34:44;;;;;;;7.70;2.53;;;;;;;8.06;100.00;98280.16;4375243;32;20124;-66
2023/03/31 03:37:11;;;;;;;3.62;2.15;;;;;;;8.14;100.00;98272.47;4375155;32;20107;-66
2023/03/31 03:39:38;;;;;;;3.67;2.00;;;;;;;8.16;100.00;98269.75;4375148;32;20189;-66
2023/03/31 03:42:05;;;;;;;4.47;2.00;;;;;;;8.18;100.00;98265.22;4386116;32;20110;-66
2023/03/31 03:44:32;;;;;;;2.78;1.90;;;;;;;8.19;100.00;98269.50;4428574;32;20080;-66
2023/03/31 03:46:59;;;;;;;3.22;2.20;;;;;;;8.11;100.00;98267.53;4469787;32;20156;-66
2023/03/31 03:49:27;;;;;;;4.43;2.95;;;;;;;8.07;100.00;98265.31;4469352;32;20455;-66
2023/03/31 03:51:54;;;;;;;5.68;3.28;;;;;;;8.07;100.00;98265.31;4469636;32;20088;-66
2023/03/31 03:54:22;;;;;;;5.87;3.47;;;;;;;8.01;100.00;98271.94;4468097;32;20092;-66
2023/03/31 03:56:50;;;;;;;4.68;2.87;;;;;;;8.07;100.00;98270.53;4469306;32;20149;-66
2023/03/31 03:59:17;;;;;;;5.40;2.70;;;;;;;8.04;100.00;98265.59;4469317;32;20101;-66
2023/03/31 04:01:44;;;;;;;3.10;2.50;;;;;;;7.96;100.00;98268.88;4469469;32;20161;-66
2023/03/31 04:04:12;;;;;;;3.67;2.53;;;;;;;7.93;100.00;98266.53;4469997;32;20088;-66
2023/03/31 04:06:39;;;;;;;5.30;2.65;;;;;;;7.97;100.00;98266.13;4482054;32;20417;-66
2023/03/31 04:09:07;;;;;;;4.87;2.60;;;;;;;7.95;100.00;98262.84;4484335;31;20096;-66
2023/03/31 04:11:35;;;;;;;11.65;3.25;;;;;;;7.89;100.00;98252.94;4484501;31;20092;-66
2023/03/31 04:14:03;;;;;;;6.03;2.22;;;;;;;7.82;100.00;98249.19;4484625;31;20168;-66
2023/03/31 04:16:33;;;;;;;4.75;3.25;;;;;;;7.77;100.00;98248.78;4483416;32;20163;-66
2023/03/31 04:19:03;;;;;;;3.25;2.30;;;;;;;7.76;100.00;98241.91;4483940;31;20156;-67
2023/03/31 04:21:33;;;;;;;5.43;2.70;;;;;;;7.83;100.00;98248.25;4483426;31;20101;-67
2023/03/31 04:24:03;;;;;;;4.25;2.30;;;;;;;8.09;100.00;98245.97;4485042;31;20123;-67
2023/03/31 04:26:42;;;;;;;6.18;2.60;;;;;;;8.03;100.00;98248.31;4484995;31;20465;-66
2023/03/31 04:29:14;;;;;;;5.43;2.78;;;;;;;8.27;100.00;98248.75;4483226;31;20088;-66
2023/03/31 04:31:42;;;;;;;6.78;2.47;;;;;;;8.31;100.00;98252.75;4484279;31;20164;-67
2023/03/31 04:34:12;;;;;;;4.10;2.72;;;;;;;8.38;100.00;98247.00;4484893;31;20081;-67
2023/03/31 04:36:45;;;;;;;4.90;2.90;;;;;;;8.37;100.00;98256.59;4483753;31;20112;-67
2023/03/31 04:39:16;;;;;;;5.20;2.50;;;;;;;8.38;100.00;98254.81;4484743;32;20097;-66
2023/03/31 04:41:43;;;;;;;7.95;3.15;;;;;;;8.36;100.00;98244.53;4484326;31;20114;-66
2023/03/31 04:44:10;;;;;;;4.85;3.00;;;;;;;8.24;100.00;98246.44;4484034;31;20126;-66
2023/03/31 04:46:38;;;;;;;3.55;2.62;;;;;;;8.22;100.00;98253.56;4484171;32;20110;-67
2023/03/31 04:49:05;;;;;;;3.80;2.72;;;;;;;8.38;100.00;98242.59;4484438;32;20145;-67
2023/03/31 04:51:32;;;;;;;4.28;2.90;;;;;;;8.40;100.00;98245.06;4483284;32;20801;-67
2023/03/31 04:54:00;;;;;;;4.57;2.62;;;;;;;8.48;100.00;98242.66;4484463;32;20115;-66
2023/03/31 04:56:27;;;;;;;6.95;2.65;;;;;;;8.51;100.00;98237.16;4484405;31;20083;-67
2023/03/31 04:58:54;;;;;;;4.22;2.80;;;;;;;8.42;100.00;98232.69;4483738;32;20123;-67
2023/03/31 05:01:22;;;;;;;6.30;2.95;;;;;;;8.45;100.00;98243.72;4483190;31;20093;-66
2023/03/31 05:03:49;;;;;;;3.50;2.53;;;;;;;8.57;100.00;98238.38;4483251;31;20104;-66
2023/03/31 05:06:17;;;;;;;4.07;2.87;;;;;;;8.56;100.00;98240.16;4483638;32;20104;-66
2023/03/31 05:08:44;;;;;;;5.70;2.80;;;;;;;8.62;100.00;98234.38;4483705;31;20093;-66
2023/03/31 05:11:12;;;;;;;6.28;3.25;;;;;;;8.66;100.00;98230.53;4482204;31;20105;-66
2023/03/31 05:13:39;;;;;;;4.00;2.90;;;;;;;8.79;100.00;98226.81;4483775;32;20172;-67
2023/03/31 05:16:08;;;;;;;6.32;2.80;;;;;;;8.90;100.00;98226.66;4483329;32;20087;-67
2023/03/31 05:18:35;;;;;;;3.53;2.42;;;;;;;8.98;100.00;98225.97;4484147;31;20435;-67
2023/03/31 05:21:14;;;;;;;3.70;2.60;;;;;;;9.14;100.00;98228.00;4483858;31;20097;-67
2023/03/31 05:23:42;;;;;;;7.43;2.80;;;;;;;9.23;100.00;98216.69;4481941;32;20084;-67
2023/03/31 05:26:09;;;;;;;4.87;2.53;;;;;;;9.48;100.00;98224.84;4483448;31;20149;-67
2023/03/31 05:28:37;;;;;;;7.37;2.90;;;;;;;9.66;100.00;98224.91;4483335;31;20162;-67
2023/03/31 05:31:06;;;;;;;4.62;2.60;;;;;;;9.93;100.00;98224.94;4483213;31;20152;-67
2023/03/31 05:33:33;;;;;;;4.80;2.92;;;;;;;10.04;100.00;98223.09;4482721;32;20148;-67
2023/03/31 05:36:00;;;;;;;5.95;2.67;;;;;;;10.28;100.00;98220.72;4483332;31;20155;-67
2023/03/31 05:38:30;;;;;;;4.80;2.50;;;;;;;10.51;100.00;98238.63;4483354;32;20159;-67
2023/03/31 05:40:57;;;;;;;6.28;2.85;;;;;;;10.64;100.00;98231.22;4483538;31;20100;-67
2023/03/31 05:43:24;;;;;;;3.33;2.20;;;;;;;10.76;100.00;98233.59;4480294;32;20172;-67
2023/03/31 05:45:51;;;;;;;11.75;2.85;;;;;;;10.90;100.00;98232.22;4467553;32;20113;-67
2023/03/31 05:48:20;;;;;;;6.70;3.17;;;;;;;11.07;100.00;98228.75;4477801;32;20124;-68
2023/03/31 05:50:47;;;;;;;4.82;2.70;;;;;;;11.25;100.00;98225.25;4480462;31;20112;-68
2023/03/31 05:53:14;;;;;;;6.37;3.03;;;;;;;11.39;100.00;98234.38;4480341;32;20116;-67
2023/03/31 05:55:42;;;;;;;5.70;2.92;;;;;;;11.37;100.00;98229.28;4470399;32;20172;-66
2023/03/31 05:58:09;;;;;;;4.68;2.25;;;;;;;11.43;100.00;98227.81;4465765;31;20600;-67
2023/03/31 06:00:37;;;;;;;4.15;2.30;;;;;;;11.56;100.00;98235.28;4465975;31;20802;-67
2023/03/31 06:03:06;;;;;;;8.15;2.92;;;;;;;11.47;100.00;98224.72;4470875;32;20179;-68
2023/03/31 06:05:34;;;;;;;4.00;2.25;;;;;;;11.46;100.00;98224.87;4469116;32;20104;-68
2023/03/31 06:08:02;;;;;;;4.45;2.58;;;;;;;11.40;100.00;98221.09;4469360;32;20131;-67
2023/03/31 06:10:29;;;;;;;4.82;2.80;;;;;;;11.51;100.00;98214.75;4470024;31;20123;-67
2023/03/31 06:12:57;;;;;;;4.95;3.20;;;;;;;11.53;100.00;98213.59;4466692;32;20119;-67
2023/03/31 06:15:24;;;;;;;4.82;2.87;;;;;;;11.44;100.00;98211.09;4469018;31;20827;-67
2023/03/31 06:17:52;;;;;;;4.87;2.50;;;;;;;11.61;100.00;98204.97;4468759;31;20096;-67
2023/03/31 06:20:20;;;;;;;3.70;2.60;;;;;;;11.57;100.00;98208.88;4468955;31;20746;-68
2023/03/31 06:22:56;;;;;;;3.90;2.45;;;;;;;11.76;100.00;98206.97;4471915;31;20119;-67
2023/03/31 06:25:23;;;;;;;3.53;2.55;;;;;;;11.87;100.00;98204.91;4473386;31;20100;-67
2023/03/31 06:27:50;;;;;;;4.78;2.70;;;;;;;12.10;100.00;98212.22;4469111;31;20136;-67
2023/03/31 06:30:18;;;;;;;6.82;3.10;;;;;;;12.21;100.00;98206.62;4471179;31;20128;-66
2023/03/31 06:32:45;;;;;;;10.82;2.78;;;;;;;12.22;100.00;98207.47;4470048;31;20147;-67
2023/03/31 06:35:12;;;;;;;6.47;2.42;;;;;;;12.25;100.00;98205.34;4470698;31;20505;-68
2023/03/31 06:37:40;;;;;;;5.40;2.72;;;;;;;12.28;100.00;98216.50;4473211;31;20100;-67
2023/03/31 06:40:08;;;;;;;6.10;2.58;;;;;;;12.49;100.00;98223.91;4471450;32;20097;-66
2023/03/31 06:42:38;;;;;;;6.90;3.35;;;;;;;12.54;100.00;98226.91;4469556;32;20112;-67
2023/03/31 06:45:06;;;;;;;8.35;5.15;;;;;;;12.70;100.00;98226.91;4469748;31;20100;-66
2023/03/31 06:47:33;;;;;;;7.37;4.70;;;;;;;12.60;100.00;98240.19;4475646;31;20127;-67
2023/03/31 06:50:01;;;;;;;9.30;4.70;;;;;;;12.45;100.00;98233.94;4470077;31;20139;-67
2023/03/31 06:52:30;;;;;;;7.93;5.55;;;;;;;12.41;100.00;98233.44;4472349;31;20125;-67
2023/03/31 06:54:57;;;;;;;9.23;6.00;;;;;;;12.59;100.00;98230.66;4473593;32;20122;-68
2023/03/31 06:57:24;;;;;;;5.30;3.55;;;;;;;12.71;100.00;98228.53;4469635;32;20084;-67
2023/03/31 06:59:51;;;;;;;5.53;3.12;;;;;;;12.81;100.00;98238.91;4469446;31;20130;-67
2023/03/31 07:02:19;;;;;;;4.70;3.35;;;;;;;13.04;100.00;98232.97;4470744;32;20161;-66
2023/03/31 07:04:46;;;;;;;8.20;3.08;;;;;;;13.29;100.00;98234.56;4471742;31;20092;-66
2023/03/31 07:07:13;;;;;;;4.12;2.90;;;;;;;13.36;100.00;98223.41;4470368;31;20161;-67
2023/03/31 07:09:40;;;;;;;6.07;3.10;;;;;;;13.38;100.00;98219.59;4472267;31;20101;-67
2023/03/31 07:12:09;;;;;;;6.00;3.50;;;;;;;13.37;100.00;98227.66;4473567;31;20096;-67
2023/03/31 07:14:36;;;;;;;8.23;3.25;;;;;;;13.25;100.00;98224.56;4471965;31;20112;-67
2023/03/31 07:17:03;;;;;;;6.70;2.85;;;;;;;13.34;100.00;98220.94;4468216;31;20100;-66
2023/03/31 07:19:31;;;;;;;5.28;3.12;;;;;;;13.37;100.00;98225.03;4469829;31;20119;-67
2023/03/31 07:21:58;;;;;;;9.10;3.55;;;;;;;13.48;100.00;98214.16;4469790;31;20140;-67
2023/03/31 07:24:25;;;;;;;4.68;2.97;;;;;;;13.66;100.00;98211.31;4469775;31;20160;-68
2023/03/31 07:26:53;;;;;;;6.85;3.03;;;;;;;13.62;100.00;98210.00;4470162;31;20120;-67
2023/03/31 07:29:20;;;;;;;8.32;3.95;;;;;;;13.86;100.00;98206.44;4468880;31;20146;-67
2023/03/31 07:31:47;;;;;;;10.43;3.42;;;;;;;14.08;100.00;98202.22;4471821;31;20119;-67
2023/03/31 07:34:14;;;;;;;6.12;3.97;;;;;;;14.24;100.00;98203.13;4473818;31;20107;-67
2023/03/31 07:36:42;;;;;;;6.70;3.72;;;;;;;14.49;100.00;98195.88;4467458;31;20104;-68
2023/03/31 07:39:09;;;;;;;7.00;4.87;;;;;;;14.60;100.00;98184.88;4470783;31;20147;-68
2023/03/31 07:41:36;;;;;;;8.55;3.92;;;;;;;14.85;100.00;98189.97;4470437;32;20100;-66
2023/03/31 07:44:04;;;;;;;6.35;4.28;;;;;;;14.89;100.00;98186.00;4473548;31;20157;-68
2023/03/31 07:46:31;;;;;;;8.20;3.83;;;;;;;15.00;100.00;98190.81;4469163;31;20108;-68
2023/03/31 07:49:01;;;;;;;7.25;4.43;;;;;;;14.95;100.00;98193.19;4469671;31;20164;-67
2023/03/31 07:51:29;;;;;;;6.25;4.40;;;;;;;15.10;100.00;98187.94;4471358;32;20108;-67
2023/03/31 07:53:56;;;;;;;7.30;4.72;;;;;;;15.16;100.00;98184.56;4470143;31;20838;-68
2023/03/31 07:56:24;;;;;;;6.85;4.20;;;;;;;15.14;100.00;98183.94;4470826;32;20595;-67
2023/03/31 07:58:51;;;;;;;7.20;4.22;;;;;;;15.42;100.00;98178.84;4469229;31;20104;-68
2023/03/31 08:01:24;;;;;;;8.88;4.53;;;;;;;15.40;100.00;98183.47;4467008;31;20160;-67
2023/03/31 08:03:54;;;;;;;8.60;4.05;;;;;;;15.35;100.00;98180.59;4470040;32;20126;-69
2023/03/31 08:06:24;;;;;;;6.28;4.40;;;;;;;15.40;100.00;98172.13;4468157;32;22091;-69
2023/03/31 08:08:52;;;;;;;5.30;3.70;;;;;;;15.55;100.00;98172.91;4471772;31;20149;-69
2023/03/31 08:11:20;;;;;;;5.10;3.53;;;;;;;15.48;100.00;98164.09;4468893;31;20167;-68
2023/03/31 08:13:47;;;;;;;6.90;4.28;;;;;;;15.56;100.00;98150.81;4469432;31;20163;-68
2023/03/31 08:16:15;;;;;;;5.55;3.90;;;;;;;15.60;100.00;98154.69;4473022;31;20112;-69
2023/03/31 08:18:42;;;;;;;12.02;3.95;;;;;;;15.72;100.00;98157.69;4472180;32;20120;-69
2023/03/31 08:21:09;;;;;;;7.05;3.65;;;;;;;15.79;100.00;98155.97;4468185;32;20115;-68
2023/03/31 08:23:37;;;;;;;5.30;3.65;;;;;;;15.88;100.00;98155.84;4466813;31;20541;-68
2023/03/31 08:26:12;;;;;;;6.93;4.00;;;;;;;15.89;100.00;98152.22;4476219;31;20089;-69
2023/03/31 08:28:45;;;;;;;6.35;4.10;;;;;;;15.68;100.00;98145.84;4472388;31;20084;-68
2023/03/31 08:31:15;;;;;;;6.35;3.62;;;;;;;15.97;100.00;98136.25;4470067;31;20100;-68
2023/03/31 08:33:42;;;;;;;6.45;3.33;;;;;;;16.01;100.00;98131.41;4470477;32;20586;-67
2023/03/31 08:36:10;;;;;;;8.30;4.07;;;;;;;15.91;100.00;98131.72;4467504;31;20271;-66
2023/03/31 08:38:44;;;;;;;6.55;3.65;;;;;;;16.13;100.00;98130.72;4472282;31;20108;-67
2023/03/31 08:41:22;;;;;;;6.35;3.78;;;;;;;16.15;100.00;98125.25;4468101;31;20101;-68
2023/03/31 08:43:52;;;;;;;6.35;3.70;;;;;;;16.08;100.00;98117.25;4469777;31;20084;-68
2023/03/31 08:46:19;;;;;;;7.43;3.65;;;;;;;16.32;100.00;98113.41;4468727;31;20183;-68
2023/03/31 08:48:53;;;;;;;5.65;3.67;;;;;;;16.36;100.00;98108.56;4468838;31;20461;-68
2023/03/31 08:51:27;;;;;;;5.00;4.20;;;;;;;16.47;100.00;98108.06;4466274;31;20112;-68
2023/03/31 08:54:02;;;;;;;4.37;3.08;;;;;;;16.57;100.00;98101.63;4470028;31;20080;-68
2023/03/31 08:56:37;;;;;;;5.70;3.37;;;;;;;16.58;100.00;98092.66;4465200;32;20149;-68
2023/03/31 08:59:31;;;;;;;10.50;3.05;;;;;;;16.62;100.00;98097.41;4471555;31;20104;-69
2023/03/31 09:02:36;;;;;;;2.55;2.12;;;;;;;16.75;100.00;98082.63;4469302;32;20175;-68
2023/03/31 09:05:07;;;;;;;;;;;;;;;16.68;100.00;98091.34;4470651;31;20127;-68
2023/03/31 09:08:02;;;;;;;6.00;2.95;;;;;;;16.76;100.00;98086.88;4470488;31;20033;-69
2023/03/31 09:10:51;;;;;;;5.87;2.85;;;;;;;16.52;100.00;98086.31;4472346;31;20146;-69
2023/03/31 09:13:50;;;;;;;4.20;3.05;;;;;;;16.82;100.00;98086.09;4471501;31;20155;-69
2023/03/31 09:16:38;;;;;;;4.90;2.97;;;;;;;17.10;100.00;98078.16;4469244;31;20155;-69
2023/03/31 09:19:13;;;;;;;6.22;3.25;;;;;;;17.22;100.00;98069.69;4466819;31;20096;-69
2023/03/31 09:21:43;;;;;;;5.65;2.70;;;;;;;17.24;100.00;98059.69;4467238;31;20168;-69
2023/03/31 09:24:14;;;;;;;9.65;3.37;;;;;;;17.06;100.00;98060.22;4470927;32;20131;-69
2023/03/31 09:26:48;;;;;;;4.70;2.60;;;;;;;17.24;100.00;98057.06;4468881;31;20188;-69
2023/03/31 09:29:33;;;;;;;7.57;4.70;;;;;;;17.30;100.00;98062.34;4469092;31;20124;-68
2023/03/31 09:32:12;;;;;;;4.28;3.28;;;;;;;17.23;100.00;98055.41;4470719;31;20130;-68
2023/03/31 09:34:40;;;;;;;9.40;3.33;;;;;;;17.33;100.00;98048.72;4469294;31;20167;-69
2023/03/31 09:37:09;;;;;;;6.75;3.35;;;;;;;17.54;100.00;98037.19;4470062;32;20096;-69
2023/03/31 09:39:37;;;;;;;5.78;2.97;;;;;;;17.77;100.00;98041.31;4470603;32;20161;-67
2023/03/31 09:42:05;;;;;;;4.05;3.20;;;;;;;17.80;100.00;98034.78;4471125;31;20496;-69
2023/03/31 09:44:36;;;;;;;8.65;4.22;;;;;;;17.59;100.00;98038.41;4472675;31;20087;-69
2023/03/31 09:47:06;;;;;;;6.68;3.47;;;;;;;17.49;100.00;98034.31;4469388;31;20136;-69
2023/03/31 09:49:38;;;;;;;7.53;3.87;;;;;;;17.23;100.00;98032.41;4470864;31;20116;-68
2023/03/31 09:52:08;;;;;;;5.32;3.33;;;;;;;16.96;100.00;98020.91;4472115;31;20101;-69
2023/03/31 09:54:48;;;;;;;6.12;3.40;;;;;;;16.95;100.00;98027.19;4467168;31;20447;-68
2023/03/31 09:57:23;;;;;;;8.35;3.10;;;;;;;17.09;100.00;98022.78;4474990;31;20165;-69
2023/03/31 09:59:51;;;;;;;6.93;2.67;;;;;;;16.92;100.00;98017.00;4473841;31;20802;-69
2023/03/31 10:02:39;;;;;;;6.50;2.80;;;;;;;16.90;100.00;98013.75;4471093;32;20912;-69
2023/03/31 10:05:42;;;;;;;4.18;2.55;;;;;;;16.93;98.83;97997.50;4471370;32;20104;-69
2023/03/31 10:08:29;;;;;;;6.60;2.70;;;;;;;17.05;98.65;97995.91;4478182;32;20130;-69
2023/03/31 10:11:00;;;;;;;5.37;2.72;;;;;;;17.14;99.72;97999.19;4481787;31;20113;-70
2023/03/31 10:13:57;;;;;;;5.68;3.25;;;;;;;17.25;96.29;98003.09;4479447;31;20225;-69
2023/03/31 10:16:28;;;;;;;6.20;3.40;;;;;;;17.08;95.86;97987.56;4449645;32;20127;-69
2023/03/31 10:19:31;;;;;;;5.05;3.00;;;;;;;16.82;99.04;97988.22;4448451;32;20081;-68
2023/03/31 10:22:20;;;;;;;3.80;2.67;;;;;;;17.00;99.37;97982.44;4449438;32;20726;-68
2023/03/31 10:24:49;;;;;;;3.92;2.72;;;;;;;17.24;96.14;97977.62;4446743;32;20615;-68
2023/03/31 10:27:23;;;;;;;4.93;2.67;;;;;;;17.50;95.36;97971.56;4449216;32;20175;-70
2023/03/31 10:29:55;;;;;;;4.37;2.85;;;;;;;17.80;96.57;97969.38;4448832;32;20093;-69
2023/03/31 10:32:27;;;;;;;5.53;2.40;;;;;;;18.12;92.71;97969.59;4433251;32;20104;-69
2023/03/31 10:35:03;;;;;;;5.70;2.37;;;;;;;18.16;83.72;97970.00;4443033;32;20515;-70
2023/03/31 10:37:32;;;;;;;4.22;2.58;;;;;;;17.94;87.76;97966.75;4447517;32;20143;-69
2023/03/31 10:40:04;;;;;;;2.00;1.60;;;;;;;17.85;91.98;97953.69;4449610;32;20112;-70
2023/03/31 10:42:32;;;;;;;3.30;1.50;;;;;;;17.70;86.02;97956.53;4433182;32;20307;-70
2023/03/31 10:45:11;;;;;;;7.45;2.22;;;;;;;17.46;86.54;97952.63;4447542;32;20783;-70
2023/03/31 10:47:53;;;;;;;5.37;2.33;;;;;;;17.68;91.22;97957.75;4446580;32;20093;-70
2023/03/31 10:50:35;;;;;;;4.40;2.70;;;;;;;17.72;91.74;97953.69;4442040;32;20319;-70
2023/03/31 10:53:11;;;;;;;3.62;2.00;;;;;;;17.78;94.57;97947.56;4453365;31;20123;-70
2023/03/31 10:55:56;;;;;;;8.05;2.70;;;;;;;18.04;97.02;97930.06;4478283;31;20111;-70
2023/03/31 10:58:46;;;;;;;2.87;1.85;;;;;;;18.17;90.47;97927.41;4478526;31;20093;-70
2023/03/31 11:01:52;;;;;;;4.45;2.40;;;;;;;18.44;90.07;97930.00;4477470;31;20481;-70
2023/03/31 11:04:44;;;;;;;5.03;2.60;;;;;;;18.79;86.42;97934.97;4472087;31;20521;-70
2023/03/31 11:07:30;;;;;;;4.78;2.83;;;;;;;18.53;81.68;97934.03;4467655;31;20104;-70
2023/03/31 11:10:11;;;;;;;3.30;2.10;;;;;;;18.42;83.66;97932.81;4473058;32;20119;-70
2023/03/31 11:13:02;;;;;;;4.18;2.37;;;;;;;18.29;80.99;97927.56;4477518;32;20114;-70
2023/03/31 11:15:45;;;;;;;5.82;2.30;;;;;;;18.27;81.73;97925.12;4478340;31;20165;-68
2023/03/31 11:18:49;;;;;;;3.35;2.37;;;;;;;18.35;82.01;97920.59;4476629;31;20107;-67
2023/03/31 11:21:34;;;;;;;3.55;2.97;;;;;;;18.70;83.52;97917.63;4481720;32;20148;-67
2023/03/31 11:24:33;;;;;;;5.80;2.65;;;;;;;18.72;82.04;97907.66;4482276;31;20088;-67
2023/03/31 11:27:15;;;;;;;5.03;2.90;;;;;;;19.20;82.25;97903.72;4431446;32;20261;-67
2023/03/31 11:30:03;;;;;;;3.97;2.53;;;;;;;19.29;79.50;97887.34;4430238;32;20553;-67
2023/03/31 11:32:33;;;;;;;6.03;2.85;;;;;;;19.21;79.08;97878.81;4431540;32;20145;-67
2023/03/31 11:35:06;;;;;;;5.82;2.65;;;;;;;19.23;81.10;97868.78;4433155;32;20117;-68
2023/03/31 11:37:45;;;;;;;3.83;2.80;;;;;;;19.15;79.89;97856.59;4433352;32;20484;-67
2023/03/31 11:40:20;;;;;;;5.37;2.60;;;;;;;19.47;81.62;97851.22;4432819;32;20129;-68
2023/03/31 11:43:08;;;;;;;3.97;2.40;;;;;;;19.60;80.62;97842.34;4434082;32;20109;-67
2023/03/31 11:46:05;;;;;;;6.45;2.95;;;;;;;19.72;84.49;97840.59;4431264;32;20151;-67
2023/03/31 11:48:58;;;;;;;5.28;3.20;;;;;;;19.85;86.40;97834.38;4433843;32;20832;-68
2023/03/31 11:51:32;;;;;;;6.95;3.20;;;;;;;19.90;81.91;97823.91;4400379;32;20101;-68
2023/03/31 11:54:01;;;;;;;3.78;2.25;;;;;;;20.03;82.26;97809.66;4414555;32;20089;-68
2023/03/31 11:56:35;;;;;;;5.85;3.20;;;;;;;19.87;72.03;97815.56;4424428;32;20384;-67
2023/03/31 11:59:03;;;;;;;6.65;3.08;;;;;;;19.63;75.00;97810.84;4420892;32;20493;-67